Time;durP1;ratioP1;P1;durP2;ratioP2;P2;SDS_P1;SDS_P2;PMS_P1;PMS_P2;Temp;Humidity;BMP_temperature;BMP_pressure;BME280_temperature;BME280_humidity;BME280_pressure;Samples;Min_cycle;Max_cycle;Signal;HPM_P1;HPM_P2
2023/05/08 00:01:40;;;;;;;1.50;0.60;;;;;;;;;;5066154;28;20513;-72
2023/05/08 00:04:06;;;;;;;0.70;0.70;;;;;;;;;;5067413;28;20480;-70
2023/05/08 00:06:32;;;;;;;0.80;0.80;;;;;;;;;;5066918;28;20489;-69
2023/05/08 00:08:58;;;;;;;1.47;1.30;;;;;;;;;;5069691;28;20808;-71
2023/05/08 00:11:24;;;;;;;2.30;0.73;;;;;;;;;;5069230;28;20499;-69
2023/05/08 00:13:50;;;;;;;0.90;0.90;;;;;;;;;;5067458;28;20485;-69
2023/05/08 00:16:16;;;;;;;0.57;0.57;;;;;;;;;;5066555;28;20438;-71
2023/05/08 00:18:42;;;;;;;0.90;0.90;;;;;;;;;;5069630;28;20425;-67
2023/05/08 00:21:08;;;;;;;0.70;0.70;;;;;;;;;;5069155;28;20417;-71
2023/05/08 00:23:34;;;;;;;0.70;0.70;;;;;;;;;;5068978;28;20429;-73
2023/05/08 00:26:00;;;;;;;0.80;0.80;;;;;;;;;;5069500;28;20432;-72
2023/05/08 00:28:26;;;;;;;0.80;0.80;;;;;;;;;;5066202;28;20441;-72
2023/05/08 00:30:52;;;;;;;0.90;0.90;;;;;;;;;;5068140;28;20472;-74
2023/05/08 00:33:18;;;;;;;3.60;1.17;;;;;;;;;;5068789;28;20479;-73
2023/05/08 00:35:44;;;;;;;0.80;0.80;;;;;;;;;;5069167;28;20413;-74
2023/05/08 00:38:10;;;;;;;0.70;0.70;;;;;;;;;;5066162;28;20499;-72
2023/05/08 00:40:36;;;;;;;0.73;0.73;;;;;;;;;;5069299;28;20453;-75
2023/05/08 00:43:02;;;;;;;0.50;0.50;;;;;;;;;;5065718;28;20522;-69
2023/05/08 00:45:36;;;;;;;2.37;0.77;;;;;;;;;;5069252;28;20805;-73
2023/05/08 00:48:02;;;;;;;0.80;0.80;;;;;;;;;;5065062;28;20442;-70
2023/05/08 00:50:29;;;;;;;0.97;0.97;;;;;;;;;;5071398;28;20444;-74
2023/05/08 00:52:55;;;;;;;2.50;2.23;;;;;;;;;;5071110;28;20495;-68
2023/05/08 00:55:21;;;;;;;0.90;0.90;;;;;;;;;;5066934;28;20547;-67
2023/05/08 00:57:47;;;;;;;0.70;0.70;;;;;;;;;;5069149;28;20959;-69
2023/05/08 01:00:16;;;;;;;0.73;0.73;;;;;;;;;;5069649;28;20429;-67
2023/05/08 01:02:42;;;;;;;0.90;0.90;;;;;;;;;;5071649;28;20459;-69
2023/05/08 01:05:09;;;;;;;1.00;1.00;;;;;;;;;;5072248;28;20425;-68
2023/05/08 01:07:35;;;;;;;0.87;0.73;;;;;;;;;;5070857;28;20441;-71
2023/05/08 01:10:01;;;;;;;0.70;0.70;;;;;;;;;;5072848;28;20444;-70
2023/05/08 01:12:47;;;;;;;3.23;0.80;;;;;;;;;;5069016;28;20976;-70
2023/05/08 01:15:19;;;;;;;9.13;0.90;;;;;;;;;;5072063;28;20428;-71
2023/05/08 01:17:50;;;;;;;0.60;0.60;;;;;;;;;;5068999;28;20428;-72
2023/05/08 01:20:35;;;;;;;2.93;0.60;;;;;;;;;;5071849;28;20405;-69
2023/05/08 01:23:07;;;;;;;0.70;0.70;;;;;;;;;;5067851;28;20524;-69
2023/05/08 01:25:42;;;;;;;1.17;0.70;;;;;;;;;;5071829;28;20432;-68
2023/05/08 01:28:12;;;;;;;2.63;0.70;;;;;;;;;;5066909;28;20818;-69
2023/05/08 01:30:41;;;;;;;0.60;0.60;;;;;;;;;;5071318;28;20952;-70
2023/05/08 01:33:16;;;;;;;0.77;0.77;;;;;;;;;;5069836;28;20524;-71
2023/05/08 01:35:49;;;;;;;1.20;1.20;;;;;;;;;;5070386;28;20512;-69
2023/05/08 01:38:27;;;;;;;1.20;1.17;;;;;;;;;;5068925;28;20437;-68
2023/05/08 01:40:54;;;;;;;0.90;0.90;;;;;;;;;;5072261;28;20422;-71
2023/05/08 01:43:37;;;;;;;0.80;0.80;;;;;;;;;;5069038;28;20433;-68
2023/05/08 01:46:05;;;;;;;0.80;0.80;;;;;;;;;;5070104;28;20491;-68
2023/05/08 01:48:37;;;;;;;0.77;0.77;;;;;;;;;;5070111;28;20437;-71
2023/05/08 01:51:06;;;;;;;1.00;1.00;;;;;;;;;;5069465;28;20469;-70
2023/05/08 01:53:41;;;;;;;2.50;1.07;;;;;;;;;;5069755;28;20564;-70
2023/05/08 01:56:12;;;;;;;3.13;0.83;;;;;;;;;;5069079;28;20432;-67
2023/05/08 01:58:39;;;;;;;0.77;0.77;;;;;;;;;;5069674;28;20459;-71
2023/05/08 02:01:05;;;;;;;1.00;1.00;;;;;;;;;;5066439;28;20440;-68
2023/05/08 02:03:33;;;;;;;2.63;1.03;;;;;;;;;;5070947;28;20453;-67
2023/05/08 02:06:00;;;;;;;6.10;0.90;;;;;;;;;;5071165;28;20468;-68
2023/05/08 02:08:27;;;;;;;1.03;0.70;;;;;;;;;;5070217;28;20440;-68
2023/05/08 02:10:55;;;;;;;5.87;0.90;;;;;;;;;;5068145;28;20532;-69
2023/05/08 02:13:22;;;;;;;1.00;1.00;;;;;;;;;;5068079;28;20468;-71
2023/05/08 02:15:49;;;;;;;1.80;0.70;;;;;;;;;;5071278;28;20453;-70
2023/05/08 02:18:15;;;;;;;3.80;0.80;;;;;;;;;;5071153;28;20491;-69
2023/05/08 02:20:41;;;;;;;1.00;0.97;;;;;;;;;;5066176;28;20442;-69
2023/05/08 02:23:08;;;;;;;1.10;1.10;;;;;;;;;;5069864;28;20437;-71
2023/05/08 02:25:35;;;;;;;1.40;1.30;;;;;;;;;;5069527;28;20437;-68
2023/05/08 02:28:01;;;;;;;0.90;0.90;;;;;;;;;;5070421;28;20485;-67
2023/05/08 02:30:28;;;;;;;1.53;0.80;;;;;;;;;;5069175;28;20856;-68
2023/05/08 02:32:55;;;;;;;0.80;0.80;;;;;;;;;;5067767;28;20469;-69
2023/05/08 02:35:21;;;;;;;0.83;0.83;;;;;;;;;;5069741;28;20475;-69
2023/05/08 02:37:50;;;;;;;2.73;0.80;;;;;;;;;;5068905;28;20929;-72
2023/05/08 02:40:16;;;;;;;1.10;1.10;;;;;;;;;;5069808;28;20516;-68
2023/05/08 02:42:43;;;;;;;1.30;0.80;;;;;;;;;;5069464;28;20478;-71
2023/05/08 02:45:11;;;;;;;1.40;1.40;;;;;;;;;;5069722;28;20457;-69
2023/05/08 02:47:45;;;;;;;2.83;1.00;;;;;;;;;;5069387;28;20432;-72
2023/05/08 02:50:17;;;;;;;1.90;0.60;;;;;;;;;;5068016;28;20429;-68
2023/05/08 02:52:52;;;;;;;2.67;0.80;;;;;;;;;;5070175;28;20429;-68
2023/05/08 02:55:36;;;;;;;0.83;0.83;;;;;;;;;;5069017;28;20448;-68
2023/05/08 02:58:06;;;;;;;3.60;1.07;;;;;;;;;;5070781;28;20421;-67
2023/05/08 03:00:34;;;;;;;2.53;0.70;;;;;;;;;;5069087;28;20494;-69
2023/05/08 03:03:03;;;;;;;0.90;0.90;;;;;;;;;;5068845;28;20532;-68
2023/05/08 03:05:30;;;;;;;0.77;0.77;;;;;;;;;;5068858;28;20426;-73
2023/05/08 03:07:59;;;;;;;1.10;0.90;;;;;;;;;;5069345;28;20417;-68
2023/05/08 03:10:27;;;;;;;1.27;1.17;;;;;;;;;;5066246;28;20480;-71
2023/05/08 03:12:56;;;;;;;2.83;0.70;;;;;;;;;;5068527;28;20469;-73
2023/05/08 03:15:33;;;;;;;0.83;0.83;;;;;;;;;;5070316;28;20462;-73
2023/05/08 03:18:02;;;;;;;0.77;0.77;;;;;;;;;;5068502;28;20922;-72
2023/05/08 03:20:31;;;;;;;0.83;0.83;;;;;;;;;;5068677;28;20417;-72
2023/05/08 03:22:58;;;;;;;1.23;1.10;;;;;;;;;;5067562;28;20445;-69
2023/05/08 03:25:24;;;;;;;1.00;1.00;;;;;;;;;;5070170;28;20981;-71
2023/05/08 03:27:51;;;;;;;2.77;1.00;;;;;;;;;;5070246;28;20426;-73
2023/05/08 03:30:18;;;;;;;0.83;0.83;;;;;;;;;;5070376;28;20413;-67
2023/05/08 03:32:44;;;;;;;0.90;0.90;;;;;;;;;;5067938;28;20433;-70
2023/05/08 03:35:10;;;;;;;6.17;1.10;;;;;;;;;;5069708;28;20428;-71
2023/05/08 03:37:37;;;;;;;1.43;0.90;;;;;;;;;;5066890;28;20437;-73
2023/05/08 03:40:03;;;;;;;0.90;0.90;;;;;;;;;;5070130;28;20414;-69
2023/05/08 03:42:30;;;;;;;1.17;0.90;;;;;;;;;;5068048;28;20438;-68
2023/05/08 03:44:57;;;;;;;0.80;0.80;;;;;;;;;;5068795;28;20443;-71
2023/05/08 03:47:27;;;;;;;1.17;1.10;;;;;;;;;;5066637;28;20447;-70
2023/05/08 03:49:53;;;;;;;0.90;0.90;;;;;;;;;;5069481;28;20524;-70
2023/05/08 03:52:19;;;;;;;1.33;1.23;;;;;;;;;;5066522;28;20456;-68
2023/05/08 03:54:45;;;;;;;1.07;0.93;;;;;;;;;;5069071;28;20996;-68
2023/05/08 03:57:11;;;;;;;0.93;0.93;;;;;;;;;;5067465;28;20486;-68
2023/05/08 03:59:38;;;;;;;0.80;0.80;;;;;;;;;;5068570;28;20830;-68
2023/05/08 04:02:13;;;;;;;1.90;1.03;;;;;;;;;;5069257;28;20421;-69
2023/05/08 04:04:40;;;;;;;4.23;1.00;;;;;;;;;;5069271;28;20429;-68
2023/05/08 04:07:10;;;;;;;1.03;1.03;;;;;;;;;;5064754;28;20530;-69
2023/05/08 04:09:36;;;;;;;1.13;1.13;;;;;;;;;;5067015;28;20930;-67
2023/05/08 04:12:04;;;;;;;1.00;1.00;;;;;;;;;;5068120;28;20929;-67
2023/05/08 04:14:34;;;;;;;0.80;0.80;;;;;;;;;;5069451;28;21014;-74
2023/05/08 04:17:02;;;;;;;0.80;0.80;;;;;;;;;;5066691;28;20437;-71
2023/05/08 04:19:32;;;;;;;1.40;1.30;;;;;;;;;;5067387;28;20445;-71
2023/05/08 04:22:00;;;;;;;2.40;0.97;;;;;;;;;;5067438;28;20437;-69
2023/05/08 04:24:28;;;;;;;1.90;0.90;;;;;;;;;;5072758;28;20947;-74
2023/05/08 04:26:54;;;;;;;1.10;1.10;;;;;;;;;;5071739;28;20459;-69
2023/05/08 04:29:21;;;;;;;1.33;1.33;;;;;;;;;;5072495;28;20444;-70
2023/05/08 04:31:49;;;;;;;1.07;1.07;;;;;;;;;;5073206;28;20418;-69
2023/05/08 04:34:15;;;;;;;1.73;1.40;;;;;;;;;;5072869;28;20480;-69
2023/05/08 04:36:42;;;;;;;2.57;1.20;;;;;;;;;;5063382;28;20441;-67
2023/05/08 04:39:08;;;;;;;1.30;1.30;;;;;;;;;;5069295;28;20452;-68
2023/05/08 04:41:34;;;;;;;1.87;1.67;;;;;;;;;;5072757;28;20417;-67
2023/05/08 04:44:00;;;;;;;2.37;1.70;;;;;;;;;;5073115;28;20421;-67
2023/05/08 04:46:26;;;;;;;1.27;1.27;;;;;;;;;;5070759;28;20592;-67
2023/05/08 04:48:52;;;;;;;1.77;1.77;;;;;;;;;;5071477;28;20500;-67
2023/05/08 04:51:18;;;;;;;1.57;1.57;;;;;;;;;;5070491;28;20934;-69
2023/05/08 04:53:44;;;;;;;2.20;2.10;;;;;;;;;;5070207;28;20834;-71
2023/05/08 04:56:10;;;;;;;1.20;1.20;;;;;;;;;;5062686;28;20440;-70
2023/05/08 04:58:36;;;;;;;1.23;1.23;;;;;;;;;;5062863;28;20441;-69
2023/05/08 05:01:03;;;;;;;1.23;1.23;;;;;;;;;;5067130;28;20514;-69
2023/05/08 05:03:29;;;;;;;0.90;0.90;;;;;;;;;;5071560;28;20429;-69
2023/05/08 05:06:02;;;;;;;1.87;1.77;;;;;;;;;;5068573;28;20441;-68
2023/05/08 05:08:28;;;;;;;1.50;1.50;;;;;;;;;;5070458;28;20418;-69
2023/05/08 05:10:54;;;;;;;1.50;1.50;;;;;;;;;;5067150;28;20433;-67
2023/05/08 05:13:19;;;;;;;1.13;1.13;;;;;;;;;;5071470;28;20972;-68
2023/05/08 05:15:45;;;;;;;0.93;0.93;;;;;;;;;;5064387;28;20460;-68
2023/05/08 05:18:11;;;;;;;1.30;1.20;;;;;;;;;;5070675;28;20418;-67
2023/05/08 05:20:37;;;;;;;1.60;1.50;;;;;;;;;;5069807;28;20491;-68
2023/05/08 05:23:03;;;;;;;1.40;1.40;;;;;;;;;;5069081;28;20428;-67
2023/05/08 05:25:29;;;;;;;1.50;1.40;;;;;;;;;;5070549;28;20447;-69
2023/05/08 05:27:56;;;;;;;2.10;0.90;;;;;;;;;;5069915;28;20443;-68
2023/05/08 05:30:22;;;;;;;1.27;1.23;;;;;;;;;;5071724;28;20464;-67
2023/05/08 05:32:48;;;;;;;1.00;1.00;;;;;;;;;;5071094;28;20429;-68
2023/05/08 05:35:14;;;;;;;2.07;1.97;;;;;;;;;;5068922;28;20524;-66
2023/05/08 05:37:40;;;;;;;3.30;2.30;;;;;;;;;;5071409;28;20500;-67
2023/05/08 05:40:06;;;;;;;2.30;2.10;;;;;;;;;;5071993;28;20488;-67
2023/05/08 05:42:32;;;;;;;1.70;1.70;;;;;;;;;;5067127;28;20437;-68
2023/05/08 05:44:58;;;;;;;1.40;1.40;;;;;;;;;;5068011;28;20456;-66
2023/05/08 05:47:24;;;;;;;1.00;1.00;;;;;;;;;;5069799;28;20582;-68
2023/05/08 05:49:50;;;;;;;1.57;1.57;;;;;;;;;;5068780;28;20445;-68
2023/05/08 05:52:16;;;;;;;1.90;1.90;;;;;;;;;;5070452;28;20421;-67
2023/05/08 05:54:42;;;;;;;3.40;3.40;;;;;;;;;;5070789;28;20488;-70
2023/05/08 05:57:08;;;;;;;2.90;2.80;;;;;;;;;;5069460;28;20448;-67
2023/05/08 05:59:34;;;;;;;4.67;2.07;;;;;;;;;;5072091;28;20429;-67
2023/05/08 06:02:00;;;;;;;2.60;2.50;;;;;;;;;;5063610;28;20438;-67
2023/05/08 06:04:26;;;;;;;2.17;2.17;;;;;;;;;;5064835;28;20445;-67
2023/05/08 06:06:52;;;;;;;1.90;1.90;;;;;;;;;;5070400;28;20435;-67
2023/05/08 06:09:18;;;;;;;1.77;1.57;;;;;;;;;;5071381;28;20475;-67
2023/05/08 06:11:44;;;;;;;1.30;1.30;;;;;;;;;;5069301;28;20421;-67
2023/05/08 06:14:10;;;;;;;1.23;1.23;;;;;;;;;;5068846;28;20528;-68
2023/05/08 06:16:36;;;;;;;2.30;1.70;;;;;;;;;;5071204;28;20417;-67
2023/05/08 06:19:02;;;;;;;1.60;1.60;;;;;;;;;;5069737;28;20457;-67
2023/05/08 06:21:28;;;;;;;3.40;1.77;;;;;;;;;;5067715;28;20514;-68
2023/05/08 06:23:54;;;;;;;1.73;1.63;;;;;;;;;;5070260;28;20472;-68
2023/05/08 06:26:21;;;;;;;1.27;1.27;;;;;;;;;;5070931;28;20444;-68
2023/05/08 06:28:47;;;;;;;1.50;1.40;;;;;;;;;;5068751;28;20578;-70
2023/05/08 06:31:13;;;;;;;1.40;1.40;;;;;;;;;;5061897;28;20437;-67
2023/05/08 06:33:39;;;;;;;1.27;1.27;;;;;;;;;;5066403;28;20491;-67
2023/05/08 06:36:06;;;;;;;1.50;1.40;;;;;;;;;;5067110;28;20429;-66
2023/05/08 06:38:32;;;;;;;1.67;1.40;;;;;;;;;;5068771;28;20945;-67
2023/05/08 06:40:58;;;;;;;2.00;1.37;;;;;;;;;;5068404;28;20449;-68
2023/05/08 06:43:23;;;;;;;1.90;1.90;;;;;;;;;;5067325;28;20968;-67
2023/05/08 06:45:51;;;;;;;1.57;1.53;;;;;;;;;;5054252;28;20582;-67
2023/05/08 06:48:17;;;;;;;1.20;1.20;;;;;;;;;;5066183;28;20468;-66
2023/05/08 06:50:44;;;;;;;1.43;1.27;;;;;;;;;;5060537;28;20977;-68
2023/05/08 06:53:10;;;;;;;1.20;1.20;;;;;;;;;;5068561;28;20477;-67
2023/05/08 06:55:36;;;;;;;4.27;1.47;;;;;;;;;;5069470;28;20445;-64
2023/05/08 06:58:02;;;;;;;6.73;1.50;;;;;;;;;;5066177;28;20445;-69
2023/05/08 07:00:28;;;;;;;1.87;1.70;;;;;;;;;;5066475;28;20507;-67
2023/05/08 07:02:54;;;;;;;1.80;1.70;;;;;;;;;;5066053;28;20448;-68
2023/05/08 07:05:20;;;;;;;1.80;1.80;;;;;;;;;;5067096;28;20441;-66
2023/05/08 07:07:46;;;;;;;2.10;1.70;;;;;;;;;;5069246;28;20441;-66
2023/05/08 07:10:12;;;;;;;1.70;1.70;;;;;;;;;;5063209;28;20460;-70
2023/05/08 07:12:38;;;;;;;1.60;1.60;;;;;;;;;;5068488;28;20422;-68
2023/05/08 07:15:04;;;;;;;1.83;1.60;;;;;;;;;;5067737;28;20825;-67
2023/05/08 07:17:31;;;;;;;1.73;1.60;;;;;;;;;;5067936;28;20929;-66
2023/05/08 07:19:57;;;;;;;2.87;2.00;;;;;;;;;;5064257;28;20495;-66
2023/05/08 07:22:23;;;;;;;1.90;1.70;;;;;;;;;;5069077;28;20421;-67
2023/05/08 07:24:49;;;;;;;1.70;1.70;;;;;;;;;;5068467;28;20437;-67
2023/05/08 07:27:15;;;;;;;2.30;2.20;;;;;;;;;;5067408;28;20424;-67
2023/05/08 07:29:42;;;;;;;1.67;1.63;;;;;;;;;;5064817;28;20460;-66
2023/05/08 07:32:08;;;;;;;2.57;2.37;;;;;;;;;;5069204;28;20543;-67
2023/05/08 07:34:34;;;;;;;2.97;2.30;;;;;;;;;;5068405;28;20496;-67
2023/05/08 07:37:00;;;;;;;2.40;2.40;;;;;;;;;;5068296;28;20505;-67
2023/05/08 07:39:26;;;;;;;1.97;1.97;;;;;;;;;;5066829;28;20445;-67
2023/05/08 07:41:53;;;;;;;2.47;2.33;;;;;;;;;;5068915;28;20499;-68
2023/05/08 07:44:19;;;;;;;2.03;1.93;;;;;;;;;;5068795;28;20452;-66
2023/05/08 07:46:45;;;;;;;2.03;2.00;;;;;;;;;;5068533;28;20468;-66
2023/05/08 07:49:11;;;;;;;2.77;2.57;;;;;;;;;;5066757;28;20437;-67
2023/05/08 07:51:38;;;;;;;2.03;1.90;;;;;;;;;;5065778;28;20491;-67
2023/05/08 07:54:04;;;;;;;2.42;2.22;;;;;;;;;;5067187;28;20446;-66
2023/05/08 07:56:30;;;;;;;2.07;2.07;;;;;;;;;;5069748;28;20594;-66
2023/05/08 07:58:56;;;;;;;3.00;2.80;;;;;;;;;;5067688;28;20429;-67
2023/05/08 08:01:22;;;;;;;2.10;2.00;;;;;;;;;;5063075;28;20563;-67
2023/05/08 08:03:48;;;;;;;2.70;2.60;;;;;;;;;;5068938;28;20496;-67
2023/05/08 08:06:14;;;;;;;11.07;10.07;;;;;;;;;;5069400;28;20495;-67
2023/05/08 08:08:40;;;;;;;2.10;2.10;;;;;;;;;;5069416;28;20475;-67
2023/05/08 08:11:06;;;;;;;1.93;1.83;;;;;;;;;;5065278;28;20438;-66
2023/05/08 08:13:32;;;;;;;1.53;1.53;;;;;;;;;;5068407;28;20503;-66
2023/05/08 08:15:58;;;;;;;1.50;1.50;;;;;;;;;;5069161;28;20518;-68
2023/05/08 08:18:24;;;;;;;1.60;1.60;;;;;;;;;;5065646;28;21032;-66
2023/05/08 08:20:50;;;;;;;1.17;1.17;;;;;;;;;;5067948;28;20532;-67
2023/05/08 08:23:16;;;;;;;2.47;1.70;;;;;;;;;;5068228;28;20955;-66
2023/05/08 08:25:42;;;;;;;2.17;2.07;;;;;;;;;;5068921;28;20479;-67
2023/05/08 08:28:08;;;;;;;1.47;1.47;;;;;;;;;;5069613;28;20413;-67
2023/05/08 08:30:34;;;;;;;1.60;1.50;;;;;;;;;;5067404;28;20429;-66
2023/05/08 08:33:01;;;;;;;7.00;1.80;;;;;;;;;;5068055;28;20461;-67
2023/05/08 08:35:28;;;;;;;1.20;1.20;;;;;;;;;;5068836;28;20446;-67
2023/05/08 08:37:54;;;;;;;1.20;1.20;;;;;;;;;;5069313;28;20524;-67
2023/05/08 08:40:21;;;;;;;1.40;1.40;;;;;;;;;;5067760;28;20440;-67
2023/05/08 08:42:47;;;;;;;1.20;1.20;;;;;;;;;;5066923;28;20441;-67
2023/05/08 08:45:13;;;;;;;1.47;1.47;;;;;;;;;;5068032;28;20578;-67
2023/05/08 08:47:41;;;;;;;1.93;1.57;;;;;;;;;;5067987;28;20948;-66
2023/05/08 08:50:07;;;;;;;1.90;1.80;;;;;;;;;;5067341;28;20422;-66
2023/05/08 08:52:53;;;;;;;1.10;1.10;;;;;;;;;;5067571;28;20956;-66
2023/05/08 08:55:20;;;;;;;1.63;1.63;;;;;;;;;;5067950;28;20433;-67
2023/05/08 08:58:02;;;;;;;1.67;1.67;;;;;;;;;;5069135;28;20421;-66
2023/05/08 09:00:33;;;;;;;1.27;1.27;;;;;;;;;;5068449;28;20925;-66
2023/05/08 09:02:59;;;;;;;3.17;1.50;;;;;;;;;;5064976;28;20459;-67
2023/05/08 09:05:25;;;;;;;1.30;1.30;;;;;;;;;;5069096;28;20484;-67
2023/05/08 09:07:54;;;;;;;1.37;1.10;;;;;;;;;;5069113;28;20479;-67
2023/05/08 09:10:21;;;;;;;2.30;2.00;;;;;;;;;;5070782;28;20487;-66
2023/05/08 09:12:47;;;;;;;1.20;1.20;;;;;;;;;;5070804;28;20429;-66
2023/05/08 09:15:14;;;;;;;1.40;1.40;;;;;;;;;;5072472;28;20433;-67
2023/05/08 09:17:40;;;;;;;2.07;2.07;;;;;;;;;;5071405;28;20438;-67
2023/05/08 09:20:07;;;;;;;3.50;2.97;;;;;;;;;;5072171;28;20784;-67
2023/05/08 09:22:35;;;;;;;5.20;1.57;;;;;;;;;;5072287;28;20426;-67
2023/05/08 09:25:02;;;;;;;3.30;1.87;;;;;;;;;;5070964;28;20460;-66
2023/05/08 09:27:29;;;;;;;1.80;1.80;;;;;;;;;;5070548;28;20774;-66
2023/05/08 09:30:00;;;;;;;2.33;2.17;;;;;;;;;;5072379;28;20997;-67
2023/05/08 09:32:26;;;;;;;2.30;1.90;;;;;;;;;;5070695;28;20437;-66
2023/05/08 09:34:52;;;;;;;3.03;2.10;;;;;;;;;;5071772;28;20743;-66
2023/05/08 09:37:18;;;;;;;1.90;1.90;;;;;;;;;;5072559;28;20788;-66
2023/05/08 09:39:46;;;;;;;1.87;1.87;;;;;;;;;;5071010;28;20425;-66
2023/05/08 09:42:13;;;;;;;1.90;1.90;;;;;;;;;;5071860;28;20944;-67
2023/05/08 09:44:54;;;;;;;2.13;2.03;;;;;;;;;;5071900;28;20421;-67
2023/05/08 09:47:20;;;;;;;2.77;1.73;;;;;;;;;;5071002;28;20453;-66
2023/05/08 09:49:58;;;;;;;2.00;2.00;;;;;;;;;;5071592;28;20421;-65
2023/05/08 09:52:25;;;;;;;5.20;1.93;;;;;;;;;;5067912;28;20449;-66
2023/05/08 09:55:01;;;;;;;1.70;1.70;;;;;;;;;;5071049;28;20499;-67
2023/05/08 09:57:30;;;;;;;2.03;1.60;;;;;;;;;;5071238;28;20458;-67
2023/05/08 10:00:04;;;;;;;3.93;1.87;;;;;;;;;;5070730;28;20909;-68
2023/05/08 10:02:30;;;;;;;1.80;1.80;;;;;;;;;;5067964;28;20522;-67
2023/05/08 10:04:56;;;;;;;1.53;1.53;;;;;;;;;;5070378;28;20425;-65
2023/05/08 10:07:32;;;;;;;1.60;1.50;;;;;;;;;;5071524;28;20425;-67
2023/05/08 10:10:00;;;;;;;0.60;0.60;;;;;;;;;;5071364;28;20410;-67
2023/05/08 10:12:27;;;;;;;0.90;0.90;;;;;;;;;;5069325;28;20805;-67
2023/05/08 10:14:53;;;;;;;0.73;0.73;;;;;;;;;;5064666;28;20554;-67
2023/05/08 10:17:27;;;;;;;0.97;0.97;;;;;;;;;;5070105;28;20433;-67
2023/05/08 10:19:58;;;;;;;1.10;1.10;;;;;;;;;;5070472;28;20417;-67
2023/05/08 10:22:25;;;;;;;0.97;0.97;;;;;;;;;;5069372;28;20436;-68
2023/05/08 10:24:55;;;;;;;2.63;2.43;;;;;;;;;;5069260;28;20924;-68
2023/05/08 10:27:26;;;;;;;3.90;1.70;;;;;;;;;;5069816;28;20433;-67
2023/05/08 10:29:56;;;;;;;1.50;1.50;;;;;;;;;;5068757;28;20448;-66
2023/05/08 10:32:23;;;;;;;2.60;1.50;;;;;;;;;;5066888;28;20996;-67
2023/05/08 10:34:51;;;;;;;1.40;1.40;;;;;;;;;;5068371;28;20477;-68
2023/05/08 10:37:18;;;;;;;1.23;1.23;;;;;;;;;;5066957;28;20426;-67
2023/05/08 10:39:44;;;;;;;3.33;1.20;;;;;;;;;;5068352;28;20436;-67
2023/05/08 10:42:11;;;;;;;1.57;1.40;;;;;;;;;;5069306;28;20461;-68
2023/05/08 10:44:38;;;;;;;1.80;1.77;;;;;;;;;;5070068;28;20438;-67
2023/05/08 10:47:11;;;;;;;1.43;1.43;;;;;;;;;;5069324;28;21019;-68
2023/05/08 10:49:55;;;;;;;2.00;1.70;;;;;;;;;;5070829;28;20425;-67
2023/05/08 10:52:29;;;;;;;2.47;1.40;;;;;;;;;;5070129;28;20987;-67
2023/05/08 10:55:03;;;;;;;1.90;1.80;;;;;;;;;;5069420;28;20843;-67
2023/05/08 10:57:30;;;;;;;1.50;1.50;;;;;;;;;;5069361;28;20520;-68
2023/05/08 10:59:56;;;;;;;1.40;1.40;;;;;;;;;;5070722;28;20614;-67
2023/05/08 11:02:30;;;;;;;1.20;1.20;;;;;;;;;;5069536;28;20441;-67
2023/05/08 11:05:13;;;;;;;7.13;1.17;;;;;;;;;;5070248;28;20414;-67
2023/05/08 11:08:00;;;;;;;1.13;1.13;;;;;;;;;;5070744;28;20445;-67
2023/05/08 11:10:35;;;;;;;1.40;1.40;;;;;;;;;;5069370;28;20433;-67
2023/05/08 11:13:02;;;;;;;9.63;1.50;;;;;;;;;;5069045;28;20433;-67
2023/05/08 11:15:36;;;;;;;1.43;1.43;;;;;;;;;;5069085;28;21013;-68
2023/05/08 11:18:10;;;;;;;1.00;1.00;;;;;;;;;;5069406;28;20423;-67
2023/05/08 11:20:40;;;;;;;3.03;2.23;;;;;;;;;;5069050;28;20463;-68
2023/05/08 11:23:25;;;;;;;1.53;1.53;;;;;;;;;;5069271;28;20421;-68
2023/05/08 11:26:04;;;;;;;1.40;1.40;;;;;;;;;;5070429;28;20905;-68
2023/05/08 11:28:48;;;;;;;1.60;1.60;;;;;;;;;;5052117;28;20417;-68
2023/05/08 11:31:14;;;;;;;2.37;1.67;;;;;;;;;;5069481;28;20433;-67
2023/05/08 11:33:40;;;;;;;1.53;1.53;;;;;;;;;;5067990;28;20875;-67
2023/05/08 11:36:06;;;;;;;1.80;1.80;;;;;;;;;;5070104;28;20421;-64
2023/05/08 11:38:34;;;;;;;1.00;1.00;;;;;;;;;;5066050;28;20477;-68
2023/05/08 11:41:02;;;;;;;1.10;1.10;;;;;;;;;;5070191;28;20199;-67
2023/05/08 11:43:36;;;;;;;3.63;1.37;;;;;;;;;;5068170;28;20441;-67
2023/05/08 11:46:15;;;;;;;1.10;1.10;;;;;;;;;;5067438;28;21003;-67
2023/05/08 11:48:42;;;;;;;1.10;1.00;;;;;;;;;;5067542;28;20437;-67
2023/05/08 11:51:08;;;;;;;3.07;2.97;;;;;;;;;;5069794;28;20985;-67
2023/05/08 11:53:35;;;;;;;2.00;1.13;;;;;;;;;;5067221;28;20642;-67
2023/05/08 11:56:01;;;;;;;1.30;1.30;;;;;;;;;;5069510;28;20433;-67
2023/05/08 11:58:27;;;;;;;1.50;1.50;;;;;;;;;;5069756;28;20452;-67
2023/05/08 12:00:54;;;;;;;1.27;1.27;;;;;;;;;;5068536;28;20444;-67
2023/05/08 12:03:20;;;;;;;1.20;1.20;;;;;;;;;;5064919;28;20421;-67
2023/05/08 12:05:47;;;;;;;2.20;1.00;;;;;;;;;;5058161;28;20430;-67
2023/05/08 12:08:14;;;;;;;1.10;1.10;;;;;;;;;;5064977;28;20429;-67
2023/05/08 12:10:40;;;;;;;1.40;1.40;;;;;;;;;;5067137;28;20480;-67
2023/05/08 12:13:17;;;;;;;1.57;1.50;;;;;;;;;;5063627;28;20445;-66
2023/05/08 12:15:43;;;;;;;1.20;1.20;;;;;;;;;;5067015;28;20863;-66
2023/05/08 12:18:09;;;;;;;1.60;1.60;;;;;;;;;;5069368;28;20532;-67
2023/05/08 12:20:35;;;;;;;1.50;1.40;;;;;;;;;;5067699;28;20804;-67
2023/05/08 12:23:02;;;;;;;1.73;1.63;;;;;;;;;;5068081;28;20435;-67
2023/05/08 12:25:28;;;;;;;2.57;1.43;;;;;;;;;;5067557;28;20434;-66
2023/05/08 12:27:54;;;;;;;1.60;1.50;;;;;;;;;;5067551;28;20525;-66
2023/05/08 12:30:20;;;;;;;3.37;2.10;;;;;;;;;;5065745;28;20532;-67
2023/05/08 12:32:46;;;;;;;1.53;1.43;;;;;;;;;;5065464;28;20429;-66
2023/05/08 12:35:12;;;;;;;0.97;0.93;;;;;;;;;;5064134;28;20488;-67
2023/05/08 12:37:38;;;;;;;1.23;1.23;;;;;;;;;;5065876;28;20430;-67
2023/05/08 12:40:05;;;;;;;1.33;1.33;;;;;;;;;;5065237;28;20441;-66
2023/05/08 12:42:43;;;;;;;1.30;1.30;;;;;;;;;;5066844;28;20432;-66
2023/05/08 12:45:15;;;;;;;1.20;1.20;;;;;;;;;;5071057;28;20456;-66
2023/05/08 12:47:44;;;;;;;1.27;1.17;;;;;;;;;;5066979;28;20433;-66
2023/05/08 12:50:11;;;;;;;1.00;1.00;;;;;;;;;;5070952;28;20429;-67
2023/05/08 12:52:37;;;;;;;1.53;1.43;;;;;;;;;;5072320;28;20921;-66
2023/05/08 12:55:03;;;;;;;1.03;1.03;;;;;;;;;;5072927;28;20484;-67
2023/05/08 12:57:29;;;;;;;4.93;1.70;;;;;;;;;;5073147;28;20448;-67
2023/05/08 13:00:02;;;;;;;1.50;1.33;;;;;;;;;;5071342;28;20503;-66
2023/05/08 13:02:28;;;;;;;1.27;1.23;;;;;;;;;;5071856;28;20429;-67
2023/05/08 13:04:54;;;;;;;1.53;1.43;;;;;;;;;;5072062;28;20425;-67
2023/05/08 13:07:20;;;;;;;0.97;0.97;;;;;;;;;;5072824;28;20422;-67
2023/05/08 13:09:56;;;;;;;4.00;1.77;;;;;;;;;;5072638;28;20444;-67
2023/05/08 13:12:22;;;;;;;2.20;2.00;;;;;;;;;;5072318;28;20443;-67
2023/05/08 13:14:48;;;;;;;1.50;1.50;;;;;;;;;;5071808;28;20488;-67
2023/05/08 13:17:18;;;;;;;2.10;1.30;;;;;;;;;;5072459;28;20417;-67
2023/05/08 13:19:44;;;;;;;1.70;1.37;;;;;;;;;;5072044;28;20441;-67
2023/05/08 13:22:10;;;;;;;1.20;1.20;;;;;;;;;;5071489;28;20429;-67
2023/05/08 13:24:35;;;;;;;1.10;1.10;;;;;;;;;;5069667;28;20433;-67
2023/05/08 13:27:02;;;;;;;1.30;1.30;;;;;;;;;;5071841;28;20449;-68
2023/05/08 13:29:27;;;;;;;1.33;1.33;;;;;;;;;;5071519;28;21012;-67
2023/05/08 13:31:53;;;;;;;1.00;1.00;;;;;;;;;;5070591;28;20492;-66
2023/05/08 13:34:19;;;;;;;2.83;1.37;;;;;;;;;;5070949;28;20506;-66
2023/05/08 13:36:45;;;;;;;1.53;1.50;;;;;;;;;;5069585;28;20598;-66
2023/05/08 13:39:11;;;;;;;2.17;1.40;;;;;;;;;;5072349;28;20762;-66
2023/05/08 13:41:37;;;;;;;1.00;1.00;;;;;;;;;;5072145;28;20419;-66
2023/05/08 13:44:03;;;;;;;0.93;0.93;;;;;;;;;;5070741;28;20433;-68
2023/05/08 13:46:29;;;;;;;1.10;1.10;;;;;;;;;;5071674;28;20825;-66
2023/05/08 13:48:55;;;;;;;0.90;0.90;;;;;;;;;;5066663;28;20516;-66
2023/05/08 13:51:21;;;;;;;1.57;1.57;;;;;;;;;;5071834;28;20431;-67
2023/05/08 13:53:47;;;;;;;1.53;1.53;;;;;;;;;;5069699;28;20472;-67
2023/05/08 13:56:13;;;;;;;5.47;2.37;;;;;;;;;;5069680;28;20995;-66
2023/05/08 13:58:39;;;;;;;15.70;4.17;;;;;;;;;;5072120;28;20422;-67
2023/05/08 14:01:05;;;;;;;7.37;3.70;;;;;;;;;;5071994;28;20907;-67
2023/05/08 14:03:31;;;;;;;7.20;3.87;;;;;;;;;;5069384;28;20437;-67
2023/05/08 14:05:57;;;;;;;16.03;3.80;;;;;;;;;;5071735;28;20472;-66
2023/05/08 14:08:23;;;;;;;4.17;3.63;;;;;;;;;;5069691;28;20447;-66
2023/05/08 14:10:49;;;;;;;11.67;5.20;;;;;;;;;;5071430;28;20449;-66
2023/05/08 14:13:15;;;;;;;3.23;2.90;;;;;;;;;;5069816;28;20449;-66
2023/05/08 14:15:42;;;;;;;3.37;3.07;;;;;;;;;;5071373;28;20433;-66
2023/05/08 14:18:08;;;;;;;7.27;3.20;;;;;;;;;;5069744;28;20433;-66
2023/05/08 14:20:34;;;;;;;2.50;2.33;;;;;;;;;;5070333;28;20434;-66
2023/05/08 14:23:00;;;;;;;2.50;2.30;;;;;;;;;;5071021;28;20420;-67
2023/05/08 14:25:26;;;;;;;2.83;2.67;;;;;;;;;;5069834;28;20520;-66
2023/05/08 14:27:52;;;;;;;3.80;2.53;;;;;;;;;;5071382;28;20445;-66
2023/05/08 14:30:18;;;;;;;3.40;2.63;;;;;;;;;;5064401;28;20470;-67
2023/05/08 14:32:44;;;;;;;12.63;5.00;;;;;;;;;;5063721;28;20438;-67
2023/05/08 14:35:10;;;;;;;3.07;2.87;;;;;;;;;;5069094;28;20606;-66
2023/05/08 14:37:36;;;;;;;3.53;3.17;;;;;;;;;;5070886;28;20948;-67
2023/05/08 14:40:02;;;;;;;2.87;2.77;;;;;;;;;;5070728;28;20425;-67
2023/05/08 14:42:28;;;;;;;4.00;2.67;;;;;;;;;;5069081;28;20430;-66
2023/05/08 14:44:55;;;;;;;6.83;2.70;;;;;;;;;;5070609;28;20433;-67
2023/05/08 14:47:22;;;;;;;1.87;1.77;;;;;;;;;;5064552;28;20490;-66